createdAt,value
2023-04-07T00:00:08.035Z,0.00
2023-04-07T00:01:08.091Z,0.00
2023-04-07T00:02:08.032Z,0.00
2023-04-07T00:03:08.027Z,0.00
2023-04-07T00:04:08.262Z,0.00
2023-04-07T00:05:07.944Z,0.00
2023-04-07T00:06:07.978Z,0.00
2023-04-07T00:07:07.862Z,0.00
2023-04-07T00:08:07.980Z,0.00
2023-04-07T00:09:07.890Z,0.00
2023-04-07T00:10:07.952Z,0.00
2023-04-07T00:11:07.885Z,0.00
2023-04-07T00:12:07.856Z,0.00
2023-04-07T00:13:07.828Z,0.00
2023-04-07T00:14:07.831Z,0.00
2023-04-07T00:15:07.788Z,0.00
2023-04-07T00:16:07.839Z,0.00
2023-04-07T00:17:07.790Z,0.00
2023-04-07T00:18:07.849Z,0.00
2023-04-07T00:19:07.829Z,0.00
2023-04-07T00:20:07.725Z,0.00
2023-04-07T00:21:07.785Z,0.00
2023-04-07T00:22:07.760Z,0.00
2023-04-07T00:23:07.707Z,0.00
2023-04-07T00:24:07.719Z,0.00
2023-04-07T00:25:07.806Z,0.00
2023-04-07T00:26:07.656Z,0.00
2023-04-07T00:27:07.638Z,0.00
2023-04-07T00:28:07.745Z,0.00
2023-04-07T00:29:07.653Z,0.00
2023-04-07T00:30:07.648Z,0.00
2023-04-07T00:31:07.674Z,0.00
2023-04-07T00:32:07.651Z,0.00
2023-04-07T00:33:09.674Z,0.00
2023-04-07T00:34:07.680Z,0.00
2023-04-07T00:35:07.735Z,0.00
2023-04-07T00:36:07.612Z,0.00
2023-04-07T00:37:07.541Z,0.00
2023-04-07T00:38:07.610Z,0.00
2023-04-07T00:39:07.571Z,0.00
2023-04-07T00:40:07.514Z,0.00
2023-04-07T00:41:07.549Z,0.00
2023-04-07T00:42:07.576Z,0.00
2023-04-07T00:43:07.469Z,0.00
2023-04-07T00:44:07.465Z,0.00
2023-04-07T00:45:07.509Z,0.00
2023-04-07T00:46:07.605Z,0.00
2023-04-07T00:47:07.748Z,0.00
2023-04-07T00:48:07.496Z,0.00
2023-04-07T00:49:09.268Z,0.00
2023-04-07T00:50:07.477Z,0.00
2023-04-07T00:51:07.432Z,0.00
2023-04-07T00:52:07.416Z,0.00
2023-04-07T00:53:07.375Z,0.00
2023-04-07T00:54:07.417Z,0.00
2023-04-07T00:55:07.403Z,0.00
2023-04-07T00:56:07.398Z,0.00
2023-04-07T00:57:07.460Z,0.00
2023-04-07T00:58:07.399Z,0.00
2023-04-07T00:59:07.288Z,0.00
2023-04-07T01:00:07.432Z,0.00
2023-04-07T01:01:07.308Z,0.00
2023-04-07T01:02:07.452Z,0.00
2023-04-07T01:03:07.435Z,0.00
2023-04-07T01:04:07.368Z,0.00
2023-04-07T01:05:07.482Z,0.00
2023-04-07T01:06:07.270Z,0.00
2023-04-07T01:07:07.320Z,0.00
2023-04-07T01:08:07.263Z,0.00
2023-04-07T01:09:07.279Z,0.00
2023-04-07T01:10:07.262Z,0.00
2023-04-07T01:11:07.199Z,0.00
2023-04-07T01:12:07.188Z,0.00
2023-04-07T01:13:07.181Z,0.00
2023-04-07T01:14:07.366Z,0.00
2023-04-07T01:15:07.163Z,0.00
2023-04-07T01:16:07.244Z,0.00
2023-04-07T01:17:07.315Z,0.00
2023-04-07T01:18:07.102Z,0.00
2023-04-07T01:19:07.264Z,0.00
2023-04-07T01:20:07.095Z,0.00
2023-04-07T01:21:07.073Z,0.00
2023-04-07T01:22:07.116Z,0.00
2023-04-07T01:23:07.071Z,0.00
2023-04-07T01:24:07.111Z,0.00
2023-04-07T01:25:07.040Z,0.00
2023-04-07T01:26:07.023Z,0.00
2023-04-07T01:27:07.209Z,0.00
2023-04-07T01:28:07.035Z,0.00
2023-04-07T01:29:06.989Z,0.00
2023-04-07T01:30:07.049Z,0.00
2023-04-07T01:31:07.010Z,0.00
2023-04-07T01:32:06.980Z,0.00
2023-04-07T01:33:06.986Z,0.00
2023-04-07T01:34:06.982Z,0.00
2023-04-07T01:35:06.947Z,0.00
2023-04-07T01:36:06.955Z,0.00
2023-04-07T01:37:06.992Z,0.00
2023-04-07T01:38:06.955Z,0.00
2023-04-07T01:39:06.898Z,0.00
2023-04-07T01:40:06.874Z,0.00
2023-04-07T01:41:06.885Z,0.00
2023-04-07T01:42:06.910Z,0.00
2023-04-07T01:43:06.885Z,0.00
2023-04-07T01:44:06.867Z,0.00
2023-04-07T01:45:06.813Z,0.00
2023-04-07T01:46:06.867Z,0.00
2023-04-07T01:47:06.869Z,0.00
2023-04-07T01:48:07.266Z,0.00
2023-04-07T01:49:06.782Z,0.00
2023-04-07T01:50:06.839Z,0.00
2023-04-07T01:51:06.802Z,0.00
2023-04-07T01:52:06.769Z,0.00
2023-04-07T01:53:06.768Z,0.00
2023-04-07T01:54:06.733Z,0.00
2023-04-07T01:55:06.744Z,0.00
2023-04-07T01:56:06.866Z,0.00
2023-04-07T01:57:06.722Z,0.00
2023-04-07T01:58:06.751Z,0.00
2023-04-07T01:59:06.724Z,0.00
2023-04-07T02:00:06.696Z,0.00
2023-04-07T02:01:06.753Z,0.00
2023-04-07T02:02:06.742Z,0.00
2023-04-07T02:03:06.760Z,0.00
2023-04-07T02:04:06.725Z,0.00
2023-04-07T02:05:06.752Z,0.00
2023-04-07T02:06:06.655Z,0.00
2023-04-07T02:07:06.623Z,0.00
2023-04-07T02:08:06.607Z,0.00
2023-04-07T02:09:06.553Z,0.00
2023-04-07T02:10:06.576Z,0.00
2023-04-07T02:11:06.597Z,0.00
2023-04-07T02:12:06.569Z,0.00
2023-04-07T02:13:06.545Z,0.00
2023-04-07T02:14:06.595Z,0.00
2023-04-07T02:15:06.535Z,0.00
2023-04-07T02:16:06.507Z,0.00
2023-04-07T02:17:06.487Z,0.00
2023-04-07T02:18:06.499Z,0.00
2023-04-07T02:19:06.510Z,0.00
2023-04-07T02:20:06.465Z,0.00
2023-04-07T02:21:06.431Z,0.00
2023-04-07T02:22:06.433Z,0.00
2023-04-07T02:23:06.474Z,0.00
2023-04-07T02:24:06.410Z,0.00
2023-04-07T02:25:06.434Z,0.00
2023-04-07T02:26:06.376Z,0.00
2023-04-07T02:27:06.362Z,0.00
2023-04-07T02:28:06.437Z,0.00
2023-04-07T02:29:06.400Z,0.00
2023-04-07T02:30:06.389Z,0.00
2023-04-07T02:31:06.375Z,0.00
2023-04-07T02:32:06.557Z,0.00
2023-04-07T02:33:06.416Z,0.00
2023-04-07T02:34:06.346Z,0.00
2023-04-07T02:35:06.314Z,0.00
2023-04-07T02:36:06.293Z,0.00
2023-04-07T02:37:06.374Z,0.00
2023-04-07T02:38:06.311Z,0.00
2023-04-07T02:39:06.291Z,0.00
2023-04-07T02:40:06.246Z,0.00
2023-04-07T02:41:06.224Z,0.00
2023-04-07T02:42:06.236Z,0.00
2023-04-07T02:43:06.243Z,0.00
2023-04-07T02:44:06.199Z,0.00
2023-04-07T02:45:06.221Z,0.00
2023-04-07T02:46:06.264Z,0.00
2023-04-07T02:47:06.177Z,0.00
2023-04-07T02:48:06.198Z,0.00
2023-04-07T02:49:06.139Z,0.00
2023-04-07T02:50:06.142Z,0.00
2023-04-07T02:51:06.130Z,0.00
2023-04-07T02:52:06.125Z,0.00
2023-04-07T02:53:06.082Z,0.00
2023-04-07T02:54:06.084Z,0.00
2023-04-07T02:55:06.072Z,0.00
2023-04-07T02:56:06.111Z,0.00
2023-04-07T02:57:06.058Z,0.00
2023-04-07T02:58:06.106Z,0.00
2023-04-07T02:59:06.211Z,0.00
2023-04-07T03:00:06.024Z,0.00
2023-04-07T03:01:06.135Z,0.00
2023-04-07T03:02:06.101Z,0.00
2023-04-07T03:03:06.129Z,0.00
2023-04-07T03:04:06.021Z,0.00
2023-04-07T03:05:05.958Z,0.00
2023-04-07T03:06:05.986Z,0.00
2023-04-07T03:07:06.017Z,0.00
2023-04-07T03:08:05.908Z,0.00
2023-04-07T03:09:05.976Z,0.00
2023-04-07T03:10:05.927Z,0.00
2023-04-07T03:11:05.896Z,0.00
2023-04-07T03:12:05.907Z,0.00
2023-04-07T03:13:05.886Z,0.00
2023-04-07T03:14:05.921Z,0.00
2023-04-07T03:15:05.877Z,0.00
2023-04-07T03:16:05.842Z,0.00
2023-04-07T03:17:06.071Z,0.00
2023-04-07T03:18:05.891Z,0.00
2023-04-07T03:19:05.853Z,0.00
2023-04-07T03:20:05.809Z,0.00
2023-04-07T03:21:05.822Z,0.00
2023-04-07T03:22:05.815Z,0.00
2023-04-07T03:23:05.763Z,0.00
2023-04-07T03:24:05.835Z,0.00
2023-04-07T03:25:05.775Z,0.00
2023-04-07T03:26:05.765Z,0.00
2023-04-07T03:27:05.740Z,0.00
2023-04-07T03:28:05.745Z,0.00
2023-04-07T03:29:05.751Z,0.00
2023-04-07T03:30:05.725Z,0.00
2023-04-07T03:31:05.751Z,0.00
2023-04-07T03:32:05.667Z,0.00
2023-04-07T03:33:05.711Z,0.00
2023-04-07T03:34:05.635Z,0.00
2023-04-07T03:35:05.682Z,0.00
2023-04-07T03:36:05.687Z,0.00
2023-04-07T03:37:05.607Z,0.00
2023-04-07T03:38:05.605Z,0.00
2023-04-07T03:39:05.590Z,0.00
2023-04-07T03:40:05.577Z,0.00
2023-04-07T03:41:05.594Z,0.00
2023-04-07T03:42:05.594Z,0.00
2023-04-07T03:43:05.584Z,0.00
2023-04-07T03:44:05.551Z,0.00
2023-04-07T03:45:05.672Z,0.00
2023-04-07T03:46:05.609Z,0.00
2023-04-07T03:47:05.521Z,0.00
2023-04-07T03:48:05.595Z,0.00
2023-04-07T03:49:05.545Z,0.00
2023-04-07T03:50:05.508Z,0.00
2023-04-07T03:51:05.542Z,0.00
2023-04-07T03:52:05.457Z,0.00
2023-04-07T03:53:05.471Z,0.00
2023-04-07T03:54:05.497Z,0.00
2023-04-07T03:55:05.457Z,0.00
2023-04-07T03:56:05.444Z,0.00
2023-04-07T03:57:05.436Z,0.00
2023-04-07T03:58:05.405Z,0.00
2023-04-07T03:59:05.424Z,0.00
2023-04-07T04:00:05.357Z,0.00
2023-04-07T04:01:05.416Z,0.00
2023-04-07T04:02:05.420Z,0.00
2023-04-07T04:03:05.430Z,0.00
2023-04-07T04:04:05.495Z,0.00
2023-04-07T04:05:05.354Z,0.00
2023-04-07T04:06:05.301Z,0.00
2023-04-07T04:07:05.356Z,0.00
2023-04-07T04:08:05.355Z,0.00
2023-04-07T04:09:05.316Z,0.00
2023-04-07T04:10:05.285Z,0.00
2023-04-07T04:11:05.251Z,0.00
2023-04-07T04:12:05.277Z,0.00
2023-04-07T04:13:05.279Z,0.00
2023-04-07T04:14:05.250Z,0.00
2023-04-07T04:15:05.220Z,0.00
2023-04-07T04:16:05.380Z,0.00
2023-04-07T04:17:05.498Z,0.00
2023-04-07T04:18:05.254Z,0.00
2023-04-07T04:19:05.229Z,0.00
2023-04-07T04:20:05.204Z,0.00
2023-04-07T04:21:05.197Z,0.00
2023-04-07T04:22:05.237Z,0.00
2023-04-07T04:23:05.151Z,0.00
2023-04-07T04:24:05.139Z,0.00
2023-04-07T04:25:05.184Z,0.00
2023-04-07T04:26:05.114Z,0.00
2023-04-07T04:27:05.353Z,0.00
2023-04-07T04:28:05.075Z,0.00
2023-04-07T04:29:05.074Z,0.00
2023-04-07T04:30:05.065Z,0.00
2023-04-07T04:31:05.183Z,0.00
2023-04-07T04:32:05.079Z,0.00
2023-04-07T04:33:05.086Z,0.00
2023-04-07T04:34:04.963Z,0.00
2023-04-07T04:35:04.975Z,0.00
2023-04-07T04:36:04.954Z,0.00
2023-04-07T04:37:05.055Z,0.00
2023-04-07T04:38:04.905Z,0.00
2023-04-07T04:39:04.896Z,0.00
2023-04-07T04:40:04.921Z,0.00
2023-04-07T04:41:04.956Z,0.00
2023-04-07T04:42:04.875Z,0.00
2023-04-07T04:43:04.867Z,0.00
2023-04-07T04:44:04.828Z,0.00
2023-04-07T04:45:04.874Z,0.00
2023-04-07T04:46:04.884Z,0.00
2023-04-07T04:47:04.971Z,0.00
2023-04-07T04:48:04.846Z,0.00
2023-04-07T04:49:04.832Z,0.00
2023-04-07T04:50:04.842Z,0.00
2023-04-07T04:51:04.815Z,0.00
2023-04-07T04:52:04.798Z,0.00
2023-04-07T04:53:04.855Z,0.00
2023-04-07T04:54:04.830Z,0.00
2023-04-07T04:55:04.758Z,0.00
2023-04-07T04:56:04.742Z,0.00
2023-04-07T04:57:04.763Z,0.00
2023-04-07T04:58:04.758Z,0.00
2023-04-07T04:59:04.715Z,0.00
2023-04-07T05:00:04.729Z,0.00
2023-04-07T05:01:04.751Z,0.00
2023-04-07T05:02:04.891Z,0.00
2023-04-07T05:03:04.914Z,0.00
2023-04-07T05:04:04.886Z,0.00
2023-04-07T05:05:04.728Z,0.00
2023-04-07T05:06:04.642Z,0.00
2023-04-07T05:07:04.665Z,0.00
2023-04-07T05:08:04.668Z,0.00
2023-04-07T05:09:04.634Z,0.00
2023-04-07T05:10:04.575Z,0.00
2023-04-07T05:11:04.568Z,0.00
2023-04-07T05:12:04.569Z,0.00
2023-04-07T05:13:04.592Z,0.00
2023-04-07T05:14:04.576Z,0.00
2023-04-07T05:15:04.592Z,0.00
2023-04-07T05:16:04.590Z,0.00
2023-04-07T05:17:04.521Z,0.00
2023-04-07T05:18:04.826Z,0.00
2023-04-07T05:19:04.561Z,0.00
2023-04-07T05:20:04.532Z,0.00
2023-04-07T05:21:04.548Z,0.00
2023-04-07T05:22:04.466Z,0.00
2023-04-07T05:23:04.761Z,0.00
2023-04-07T05:24:04.518Z,0.00
2023-04-07T05:25:04.448Z,0.00
2023-04-07T05:26:04.492Z,0.00
2023-04-07T05:27:04.416Z,0.00
2023-04-07T05:28:04.444Z,0.00
2023-04-07T05:29:04.408Z,0.00
2023-04-07T05:30:04.379Z,0.00
2023-04-07T05:31:07.435Z,0.00
2023-04-07T05:32:04.515Z,0.00
2023-04-07T05:33:04.443Z,0.00
2023-04-07T05:34:04.342Z,0.00
2023-04-07T05:35:04.366Z,0.00
2023-04-07T05:36:04.373Z,0.00
2023-04-07T05:37:04.305Z,0.00
2023-04-07T05:38:04.284Z,0.00
2023-04-07T05:39:04.298Z,0.00
2023-04-07T05:40:04.283Z,0.00
2023-04-07T05:41:04.262Z,0.00
2023-04-07T05:42:04.265Z,0.00
2023-04-07T05:43:04.283Z,0.00
2023-04-07T05:44:04.257Z,0.00
2023-04-07T05:45:04.294Z,0.00
2023-04-07T05:46:04.319Z,0.00
2023-04-07T05:47:04.195Z,0.00
2023-04-07T05:48:04.242Z,0.00
2023-04-07T05:49:16.812Z,0.00
2023-04-07T05:50:04.162Z,0.00
2023-04-07T05:51:04.205Z,0.00
2023-04-07T05:52:04.161Z,0.00
2023-04-07T05:53:04.147Z,5.62
2023-04-07T05:54:04.130Z,5.62
2023-04-07T05:55:04.180Z,5.62
2023-04-07T05:56:04.117Z,5.62
2023-04-07T05:57:04.156Z,5.62
2023-04-07T05:58:04.120Z,5.62
2023-04-07T05:59:04.113Z,5.62
2023-04-07T06:00:04.133Z,5.62
2023-04-07T06:01:04.044Z,5.62
2023-04-07T06:02:04.169Z,5.62
2023-04-07T06:03:04.329Z,5.62
2023-04-07T06:04:04.075Z,5.62
2023-04-07T06:05:04.028Z,5.62
2023-04-07T06:06:04.025Z,5.62
2023-04-07T06:07:04.027Z,5.62
2023-04-07T06:08:04.004Z,5.62
2023-04-07T06:09:04.962Z,5.62
2023-04-07T06:10:03.947Z,5.62
2023-04-07T06:11:03.979Z,5.62
2023-04-07T06:12:03.988Z,5.62
2023-04-07T06:13:03.939Z,5.62
2023-04-07T06:14:03.964Z,5.62
2023-04-07T06:15:03.973Z,5.62
2023-04-07T06:16:03.953Z,5.62
2023-04-07T06:17:03.916Z,5.62
2023-04-07T06:18:03.892Z,5.62
2023-04-07T06:19:03.901Z,11.25
2023-04-07T06:20:03.877Z,11.25
2023-04-07T06:21:03.897Z,11.25
2023-04-07T06:22:03.810Z,11.25
2023-04-07T06:23:03.851Z,11.25
2023-04-07T06:24:03.850Z,11.25
2023-04-07T06:25:03.833Z,11.25
2023-04-07T06:26:03.799Z,11.25
2023-04-07T06:27:03.819Z,11.25
2023-04-07T06:28:03.764Z,11.25
2023-04-07T06:29:03.769Z,11.25
2023-04-07T06:30:03.796Z,11.25
2023-04-07T06:31:03.755Z,11.25
2023-04-07T06:32:03.780Z,11.25
2023-04-07T06:33:03.788Z,11.25
2023-04-07T06:34:03.731Z,11.25
2023-04-07T06:35:03.685Z,11.25
2023-04-07T06:36:03.685Z,11.25
2023-04-07T06:37:03.716Z,11.25
2023-04-07T06:38:03.691Z,11.25
2023-04-07T06:39:03.747Z,11.25
2023-04-07T06:40:03.642Z,11.25
2023-04-07T06:41:03.652Z,11.25
2023-04-07T06:42:03.630Z,11.25
2023-04-07T06:43:03.640Z,11.25
2023-04-07T06:44:03.617Z,11.25
2023-04-07T06:45:03.596Z,11.25
2023-04-07T06:46:03.618Z,11.25
2023-04-07T06:47:03.563Z,11.25
2023-04-07T06:48:03.662Z,11.25
2023-04-07T06:49:03.542Z,16.88
2023-04-07T06:50:03.566Z,16.88
2023-04-07T06:51:03.534Z,16.88
2023-04-07T06:52:03.505Z,16.88
2023-04-07T06:53:03.586Z,16.88
2023-04-07T06:54:03.503Z,16.88
2023-04-07T06:55:03.512Z,16.88
2023-04-07T06:56:03.536Z,16.88
2023-04-07T06:57:03.478Z,16.88
2023-04-07T06:58:03.411Z,16.88
2023-04-07T06:59:03.449Z,16.88
2023-04-07T07:00:03.504Z,16.88
2023-04-07T07:01:03.463Z,16.88
2023-04-07T07:02:03.611Z,22.50
2023-04-07T07:03:03.599Z,22.50
2023-04-07T07:04:03.472Z,22.50
2023-04-07T07:05:03.345Z,22.50
2023-04-07T07:06:03.360Z,16.88
2023-04-07T07:07:03.331Z,22.50
2023-04-07T07:08:03.380Z,22.50
2023-04-07T07:09:03.315Z,22.50
2023-04-07T07:10:03.302Z,22.50
2023-04-07T07:11:03.298Z,22.50
2023-04-07T07:12:04.284Z,22.50
2023-04-07T07:13:03.259Z,22.50
2023-04-07T07:14:03.287Z,22.50
2023-04-07T07:15:03.287Z,22.50
2023-04-07T07:16:03.405Z,22.50
2023-04-07T07:17:03.276Z,22.50
2023-04-07T07:18:03.281Z,22.50
2023-04-07T07:19:03.197Z,22.50
2023-04-07T07:20:03.223Z,22.50
2023-04-07T07:21:03.855Z,22.50
2023-04-07T07:22:03.205Z,22.50
2023-04-07T07:23:03.188Z,22.50
2023-04-07T07:24:03.199Z,22.50
2023-04-07T07:25:03.156Z,22.50
2023-04-07T07:26:03.228Z,22.50
2023-04-07T07:27:03.155Z,22.50
2023-04-07T07:28:03.197Z,22.50
2023-04-07T07:29:03.125Z,22.50
2023-04-07T07:30:03.149Z,22.50
2023-04-07T07:31:03.152Z,22.50
2023-04-07T07:32:03.091Z,22.50
2023-04-07T07:33:03.140Z,22.50
2023-04-07T07:34:03.136Z,16.88
2023-04-07T07:35:03.138Z,16.88
2023-04-07T07:36:03.067Z,16.88
2023-04-07T07:37:03.023Z,16.88
2023-04-07T07:38:03.040Z,16.88
2023-04-07T07:39:03.075Z,16.88
2023-04-07T07:40:02.971Z,16.88
2023-04-07T07:41:03.045Z,22.50
2023-04-07T07:42:03.024Z,22.50
2023-04-07T07:43:02.937Z,22.50
2023-04-07T07:44:02.989Z,22.50
2023-04-07T07:45:02.973Z,22.50
2023-04-07T07:46:03.169Z,22.50
2023-04-07T07:47:02.894Z,22.50
2023-04-07T07:48:02.953Z,22.50
2023-04-07T07:49:02.885Z,22.50
2023-04-07T07:50:02.926Z,22.50
2023-04-07T07:51:02.876Z,22.50
2023-04-07T07:52:02.904Z,22.50
2023-04-07T07:53:02.855Z,22.50
2023-04-07T07:54:02.882Z,22.50
2023-04-07T07:55:02.830Z,22.50
2023-04-07T07:56:02.821Z,22.50
2023-04-07T07:57:02.840Z,22.50
2023-04-07T07:58:02.866Z,22.50
2023-04-07T07:59:02.827Z,22.50
2023-04-07T08:00:02.817Z,22.50
2023-04-07T08:01:02.799Z,22.50
2023-04-07T08:02:02.843Z,22.50
2023-04-07T08:03:03.410Z,22.50
2023-04-07T08:04:02.770Z,22.50
2023-04-07T08:05:02.811Z,22.50
2023-04-07T08:06:02.713Z,22.50
2023-04-07T08:07:03.439Z,22.50
2023-04-07T08:08:02.690Z,28.12
2023-04-07T08:09:02.710Z,28.12
2023-04-07T08:10:02.744Z,28.12
2023-04-07T08:11:02.671Z,28.12
2023-04-07T08:12:02.672Z,28.12
2023-04-07T08:13:02.636Z,28.12
2023-04-07T08:14:02.661Z,28.12
2023-04-07T08:15:02.633Z,28.12
2023-04-07T08:16:02.672Z,28.12
2023-04-07T08:17:02.601Z,28.12
2023-04-07T08:18:02.775Z,28.12
2023-04-07T08:19:02.566Z,28.12
2023-04-07T08:20:02.550Z,33.75
2023-04-07T08:21:02.617Z,33.75
2023-04-07T08:22:02.522Z,39.38
2023-04-07T08:23:02.541Z,39.38
2023-04-07T08:24:02.533Z,39.38
2023-04-07T08:25:02.536Z,33.75
2023-04-07T08:26:02.529Z,33.75
2023-04-07T08:27:02.577Z,28.12
2023-04-07T08:28:02.469Z,28.12
2023-04-07T08:29:02.586Z,28.12
2023-04-07T08:30:02.476Z,33.75
2023-04-07T08:31:02.506Z,33.75
2023-04-07T08:32:02.529Z,33.75
2023-04-07T08:33:02.505Z,39.38
2023-04-07T08:34:02.459Z,39.38
2023-04-07T08:35:02.397Z,39.38
2023-04-07T08:36:02.417Z,39.38
2023-04-07T08:37:02.406Z,39.38
2023-04-07T08:38:02.469Z,45.00
2023-04-07T08:39:02.371Z,45.00
2023-04-07T08:40:02.375Z,45.00
2023-04-07T08:41:02.323Z,45.00
2023-04-07T08:42:02.559Z,45.00
2023-04-07T08:43:02.338Z,45.00
2023-04-07T08:44:02.376Z,50.62
2023-04-07T08:45:02.326Z,50.62
2023-04-07T08:46:02.277Z,50.62
2023-04-07T08:47:02.313Z,50.62
2023-04-07T08:48:02.357Z,50.62
2023-04-07T08:49:02.278Z,50.62
2023-04-07T08:50:02.317Z,45.00
2023-04-07T08:51:02.199Z,45.00
2023-04-07T08:52:04.073Z,45.00
2023-04-07T08:53:02.313Z,39.38
2023-04-07T08:54:02.365Z,39.38
2023-04-07T08:55:02.152Z,39.38
2023-04-07T08:56:02.159Z,45.00
2023-04-07T08:57:02.228Z,45.00
2023-04-07T08:58:02.320Z,45.00
2023-04-07T08:59:02.133Z,45.00
2023-04-07T09:00:02.202Z,45.00
2023-04-07T09:01:02.137Z,45.00
2023-04-07T09:02:02.226Z,45.00
2023-04-07T09:03:02.175Z,45.00
2023-04-07T09:04:02.099Z,45.00
2023-04-07T09:05:02.087Z,45.00
2023-04-07T09:06:02.096Z,45.00
2023-04-07T09:07:02.080Z,45.00
2023-04-07T09:08:02.034Z,45.00
2023-04-07T09:09:02.023Z,39.38
2023-04-07T09:10:02.049Z,39.38
2023-04-07T09:11:01.984Z,33.75
2023-04-07T09:12:02.064Z,28.12
2023-04-07T09:13:02.011Z,28.12
2023-04-07T09:14:02.035Z,28.12
2023-04-07T09:15:01.966Z,28.12
2023-04-07T09:16:01.997Z,22.50
2023-04-07T09:17:01.949Z,22.50
2023-04-07T09:18:01.967Z,22.50
2023-04-07T09:19:01.941Z,22.50
2023-04-07T09:20:01.926Z,28.12
2023-04-07T09:21:01.976Z,28.12
2023-04-07T09:22:01.933Z,28.12
2023-04-07T09:23:01.965Z,28.12
2023-04-07T09:24:01.888Z,33.75
2023-04-07T09:25:01.883Z,33.75
2023-04-07T09:26:01.941Z,33.75
2023-04-07T09:27:01.831Z,33.75
2023-04-07T09:28:01.855Z,39.38
2023-04-07T09:29:01.969Z,39.38
2023-04-07T09:30:01.828Z,39.38
2023-04-07T09:31:01.826Z,39.38
2023-04-07T09:32:01.872Z,39.38
2023-04-07T09:33:01.916Z,39.38
2023-04-07T09:34:01.781Z,39.38
2023-04-07T09:35:01.830Z,39.38
2023-04-07T09:36:01.844Z,39.38
2023-04-07T09:37:01.807Z,39.38
2023-04-07T09:38:01.743Z,39.38
2023-04-07T09:39:01.691Z,39.38
2023-04-07T09:40:02.010Z,39.38
2023-04-07T09:41:01.689Z,39.38
2023-04-07T09:42:01.691Z,39.38
2023-04-07T09:43:01.694Z,33.75
2023-04-07T09:44:01.769Z,33.75
2023-04-07T09:45:01.711Z,33.75
2023-04-07T09:46:01.683Z,33.75
2023-04-07T09:47:01.662Z,33.75
2023-04-07T09:48:01.686Z,33.75
2023-04-07T09:49:01.632Z,33.75
2023-04-07T09:50:01.700Z,33.75
2023-04-07T09:51:01.765Z,33.75
2023-04-07T09:52:01.625Z,33.75
2023-04-07T09:53:02.318Z,33.75
2023-04-07T09:54:01.617Z,33.75
2023-04-07T09:55:01.563Z,33.75
2023-04-07T09:56:01.546Z,33.75
2023-04-07T09:57:01.618Z,33.75
2023-04-07T09:58:01.536Z,33.75
2023-04-07T09:59:02.008Z,33.75
2023-04-07T10:00:02.471Z,33.75
2023-04-07T10:01:01.520Z,28.12
2023-04-07T10:02:01.575Z,28.12
2023-04-07T10:03:01.871Z,28.12
2023-04-07T10:04:01.486Z,22.50
2023-04-07T10:05:01.490Z,22.50
2023-04-07T10:06:01.459Z,22.50
2023-04-07T10:07:01.410Z,22.50
2023-04-07T10:08:01.437Z,22.50
2023-04-07T10:09:01.401Z,22.50
2023-04-07T10:10:01.425Z,22.50
2023-04-07T10:11:01.411Z,22.50
2023-04-07T10:12:01.381Z,22.50
2023-04-07T10:13:01.382Z,28.12
2023-04-07T10:14:01.403Z,28.12
2023-04-07T10:15:01.422Z,28.12
2023-04-07T10:16:01.347Z,28.12
2023-04-07T10:17:01.405Z,28.12
2023-04-07T10:18:01.408Z,28.12
2023-04-07T10:19:01.299Z,28.12
2023-04-07T10:20:01.324Z,28.12
2023-04-07T10:21:01.301Z,28.12
2023-04-07T10:22:01.260Z,28.12
2023-04-07T10:23:01.492Z,28.12
2023-04-07T10:24:01.315Z,28.12
2023-04-07T10:25:01.242Z,28.12
2023-04-07T10:26:01.259Z,28.12
2023-04-07T10:27:01.303Z,28.12
2023-04-07T10:28:01.337Z,28.12
2023-04-07T10:29:01.480Z,28.12
2023-04-07T10:30:01.290Z,33.75
2023-04-07T10:31:01.216Z,33.75
2023-04-07T10:32:01.210Z,33.75
2023-04-07T10:33:01.367Z,39.38
2023-04-07T10:34:01.198Z,39.38
2023-04-07T10:35:01.196Z,39.38
2023-04-07T10:36:01.248Z,39.38
2023-04-07T10:37:01.235Z,39.38
2023-04-07T10:38:01.229Z,39.38
2023-04-07T10:39:01.108Z,39.38
2023-04-07T10:40:01.190Z,39.38
2023-04-07T10:41:01.090Z,39.38
2023-04-07T10:42:01.106Z,33.75
2023-04-07T10:43:01.055Z,33.75
2023-04-07T10:44:01.046Z,33.75
2023-04-07T10:45:01.010Z,33.75
2023-04-07T10:46:01.055Z,33.75
2023-04-07T10:47:01.011Z,33.75
2023-04-07T10:48:01.373Z,33.75
2023-04-07T10:49:01.018Z,33.75
2023-04-07T10:50:01.007Z,33.75
2023-04-07T10:51:00.969Z,33.75
2023-04-07T10:52:00.973Z,33.75
2023-04-07T10:53:00.955Z,33.75
2023-04-07T10:54:00.930Z,33.75
2023-04-07T10:55:00.945Z,28.12
2023-04-07T10:56:01.835Z,28.12
2023-04-07T10:57:00.988Z,28.12
2023-04-07T10:58:00.955Z,33.75
2023-04-07T10:59:00.966Z,33.75
2023-04-07T11:00:00.970Z,33.75
2023-04-07T11:01:00.992Z,33.75
2023-04-07T11:02:00.965Z,39.38
2023-04-07T11:03:01.027Z,33.75
2023-04-07T11:04:01.285Z,33.75
2023-04-07T11:05:00.832Z,33.75
2023-04-07T11:06:00.901Z,33.75
2023-04-07T11:07:00.875Z,33.75
2023-04-07T11:08:00.860Z,33.75
2023-04-07T11:09:00.776Z,33.75
2023-04-07T11:10:00.790Z,33.75
2023-04-07T11:11:00.784Z,28.12
2023-04-07T11:12:00.775Z,28.12
2023-04-07T11:13:00.799Z,28.12
2023-04-07T11:14:00.786Z,28.12
2023-04-07T11:15:00.720Z,28.12
2023-04-07T11:16:01.436Z,28.12
2023-04-07T11:17:00.969Z,28.12
2023-04-07T11:18:00.699Z,28.12
2023-04-07T11:19:00.740Z,28.12
2023-04-07T11:20:00.714Z,33.75
2023-04-07T11:21:00.671Z,33.75
2023-04-07T11:22:00.651Z,28.12
2023-04-07T11:23:00.680Z,33.75
2023-04-07T11:24:00.622Z,33.75
2023-04-07T11:25:00.661Z,39.38
2023-04-07T11:26:00.623Z,39.38
2023-04-07T11:27:00.625Z,39.38
2023-04-07T11:28:00.558Z,39.38
2023-04-07T11:29:00.624Z,33.75
2023-04-07T11:30:00.554Z,33.75
2023-04-07T11:31:00.681Z,33.75
2023-04-07T11:32:00.573Z,33.75
2023-04-07T11:33:00.653Z,33.75
2023-04-07T11:34:00.536Z,33.75
2023-04-07T11:35:00.567Z,33.75
2023-04-07T11:36:00.587Z,33.75
2023-04-07T11:37:00.636Z,33.75
2023-04-07T11:38:00.642Z,28.12
2023-04-07T11:39:00.759Z,28.12
2023-04-07T11:40:00.438Z,28.12
2023-04-07T11:41:00.477Z,28.12
2023-04-07T11:42:00.509Z,28.12
2023-04-07T11:43:00.467Z,33.75
2023-04-07T11:44:00.402Z,33.75
2023-04-07T11:45:00.415Z,39.38
2023-04-07T11:46:00.421Z,39.38
2023-04-07T11:47:00.469Z,39.38
2023-04-07T11:48:00.428Z,39.38
2023-04-07T11:49:00.372Z,39.38
2023-04-07T11:50:00.348Z,39.38
2023-04-07T11:51:00.413Z,39.38
2023-04-07T11:52:00.328Z,39.38
2023-04-07T11:53:00.337Z,39.38
2023-04-07T11:54:00.317Z,33.75
2023-04-07T11:55:00.373Z,33.75
2023-04-07T11:56:00.280Z,33.75
2023-04-07T11:57:00.446Z,33.75
2023-04-07T11:58:17.529Z,33.75
2023-04-07T11:59:36.657Z,33.75
2023-04-07T12:00:01.229Z,33.75
2023-04-07T12:01:02.291Z,33.75
2023-04-07T12:02:02.597Z,33.75
2023-04-07T12:03:01.261Z,33.75
2023-04-07T12:04:03.704Z,33.75
2023-04-07T12:05:01.052Z,33.75
2023-04-07T12:06:01.594Z,28.12
2023-04-07T12:07:03.277Z,28.12
2023-04-07T12:08:02.969Z,33.75
2023-04-07T12:09:01.379Z,33.75
2023-04-07T12:10:02.003Z,33.75
2023-04-07T12:11:01.602Z,39.38
2023-04-07T12:12:01.850Z,39.38
2023-04-07T12:13:11.875Z,45.00
2023-04-07T12:14:03.114Z,45.00
2023-04-07T12:15:02.042Z,50.62
2023-04-07T12:18:23.636Z,50.62
2023-04-07T12:19:24.536Z,50.62
2023-04-07T12:20:24.533Z,45.00
2023-04-07T12:21:24.534Z,45.00
2023-04-07T12:22:24.478Z,50.62
2023-04-07T12:23:24.523Z,50.62
2023-04-07T12:24:24.623Z,50.62
2023-04-07T12:25:24.531Z,50.62
2023-04-07T12:26:24.519Z,45.00
2023-04-07T12:27:35.871Z,33.75
2023-04-07T12:28:24.498Z,28.12
2023-04-07T12:29:24.439Z,22.50
2023-04-07T12:30:24.424Z,22.50
2023-04-07T12:31:24.439Z,16.88
2023-04-07T12:32:24.457Z,16.88
2023-04-07T12:33:24.371Z,16.88
2023-04-07T12:34:24.375Z,16.88
2023-04-07T12:35:24.395Z,16.88
2023-04-07T12:36:24.335Z,16.88
2023-04-07T12:37:24.343Z,16.88
2023-04-07T12:38:24.315Z,22.50
2023-04-07T12:39:24.359Z,22.50
2023-04-07T12:40:24.293Z,22.50
2023-04-07T12:41:24.293Z,28.12
2023-04-07T12:42:24.338Z,28.12
2023-04-07T12:43:24.256Z,28.12
2023-04-07T12:44:24.283Z,28.12
2023-04-07T12:45:24.258Z,28.12
2023-04-07T12:46:24.264Z,28.12
2023-04-07T12:47:24.357Z,28.12
2023-04-07T12:48:24.287Z,28.12
2023-04-07T12:49:24.234Z,28.12
2023-04-07T12:50:24.178Z,28.12
2023-04-07T12:51:24.183Z,28.12
2023-04-07T12:52:24.215Z,28.12
2023-04-07T12:53:24.185Z,33.75
2023-04-07T12:54:24.189Z,28.12
2023-04-07T12:55:24.145Z,28.12
2023-04-07T12:56:24.164Z,28.12
2023-04-07T12:57:24.184Z,33.75
2023-04-07T12:58:24.124Z,33.75
2023-04-07T12:59:24.180Z,33.75
2023-04-07T13:00:24.082Z,33.75
2023-04-07T13:01:24.133Z,33.75
2023-04-07T13:02:24.182Z,33.75
2023-04-07T13:03:24.269Z,33.75
2023-04-07T13:04:24.188Z,28.12
2023-04-07T13:05:24.046Z,28.12
2023-04-07T13:06:24.039Z,28.12